RORA(METAR)
10/16 14:00
RORA 160500Z 01015KT 9999 FEW010 SCT025 28/24 Q1015 RMK A2998=
戻る
トップページへ戻る
IMOC Co,.Ltd.